sensor_id;sensor_type;location;lat;lon;timestamp;P1;durP1;ratioP1;P2;durP2;ratioP2
7729;SDS011;3908;52.310;7.230;2023-05-07T00:00:43;21.03;;;12.57;;
7729;SDS011;3908;52.310;7.230;2023-05-07T00:03:30;17.70;;;11.50;;
7729;SDS011;3908;52.310;7.230;2023-05-07T00:06:17;20.27;;;13.03;;
7729;SDS011;3908;52.310;7.230;2023-05-07T00:09:04;22.33;;;12.40;;
7729;SDS011;3908;52.310;7.230;2023-05-07T00:11:51;18.77;;;12.83;;
7729;SDS011;3908;52.310;7.230;2023-05-07T00:14:40;24.90;;;13.73;;
7729;SDS011;3908;52.310;7.230;2023-05-07T00:17:27;20.80;;;14.23;;
7729;SDS011;3908;52.310;7.230;2023-05-07T00:20:14;20.43;;;14.20;;
7729;SDS011;3908;52.310;7.230;2023-05-07T00:23:00;24.57;;;14.67;;
7729;SDS011;3908;52.310;7.230;2023-05-07T00:25:47;22.10;;;14.73;;
7729;SDS011;3908;52.310;7.230;2023-05-07T00:28:34;24.97;;;16.30;;
7729;SDS011;3908;52.310;7.230;2023-05-07T00:31:22;24.70;;;15.60;;
7729;SDS011;3908;52.310;7.230;2023-05-07T00:34:09;23.70;;;15.43;;
7729;SDS011;3908;52.310;7.230;2023-05-07T00:36:56;24.07;;;15.20;;
7729;SDS011;3908;52.310;7.230;2023-05-07T00:39:42;21.50;;;14.83;;
7729;SDS011;3908;52.310;7.230;2023-05-07T00:42:29;23.07;;;16.20;;
7729;SDS011;3908;52.310;7.230;2023-05-07T00:45:17;22.73;;;15.37;;
7729;SDS011;3908;52.310;7.230;2023-05-07T00:48:05;27.53;;;17.43;;
7729;SDS011;3908;52.310;7.230;2023-05-07T00:50:52;26.60;;;17.47;;
7729;SDS011;3908;52.310;7.230;2023-05-07T00:53:39;26.63;;;17.93;;
7729;SDS011;3908;52.310;7.230;2023-05-07T00:56:26;30.73;;;18.67;;
7729;SDS011;3908;52.310;7.230;2023-05-07T00:59:13;34.27;;;19.87;;
7729;SDS011;3908;52.310;7.230;2023-05-07T01:02:00;29.20;;;18.63;;
7729;SDS011;3908;52.310;7.230;2023-05-07T01:04:48;27.93;;;18.53;;
7729;SDS011;3908;52.310;7.230;2023-05-07T01:07:35;26.40;;;18.90;;
7729;SDS011;3908;52.310;7.230;2023-05-07T01:10:22;30.10;;;19.37;;
7729;SDS011;3908;52.310;7.230;2023-05-07T01:13:10;29.47;;;19.17;;
7729;SDS011;3908;52.310;7.230;2023-05-07T01:15:57;28.70;;;18.23;;
7729;SDS011;3908;52.310;7.230;2023-05-07T01:18:44;29.87;;;19.30;;
7729;SDS011;3908;52.310;7.230;2023-05-07T01:21:34;30.70;;;18.70;;
7729;SDS011;3908;52.310;7.230;2023-05-07T01:24:24;30.40;;;20.23;;
7729;SDS011;3908;52.310;7.230;2023-05-07T01:27:11;28.20;;;19.90;;
7729;SDS011;3908;52.310;7.230;2023-05-07T01:29:58;35.10;;;20.60;;
7729;SDS011;3908;52.310;7.230;2023-05-07T01:32:45;30.60;;;20.30;;
7729;SDS011;3908;52.310;7.230;2023-05-07T01:35:35;31.67;;;20.07;;
7729;SDS011;3908;52.310;7.230;2023-05-07T01:38:24;28.93;;;19.03;;
7729;SDS011;3908;52.310;7.230;2023-05-07T01:41:12;31.27;;;20.43;;
7729;SDS011;3908;52.310;7.230;2023-05-07T01:43:59;33.03;;;20.73;;
7729;SDS011;3908;52.310;7.230;2023-05-07T01:46:47;31.70;;;19.60;;
7729;SDS011;3908;52.310;7.230;2023-05-07T01:49:34;31.20;;;19.97;;
7729;SDS011;3908;52.310;7.230;2023-05-07T01:52:22;31.70;;;20.77;;
7729;SDS011;3908;52.310;7.230;2023-05-07T01:55:10;33.77;;;20.80;;
7729;SDS011;3908;52.310;7.230;2023-05-07T01:57:58;35.57;;;20.97;;
7729;SDS011;3908;52.310;7.230;2023-05-07T02:00:45;31.87;;;20.73;;
7729;SDS011;3908;52.310;7.230;2023-05-07T02:03:32;34.40;;;21.93;;
7729;SDS011;3908;52.310;7.230;2023-05-07T02:06:18;28.77;;;20.67;;
7729;SDS011;3908;52.310;7.230;2023-05-07T02:09:06;31.90;;;20.90;;
7729;SDS011;3908;52.310;7.230;2023-05-07T02:11:54;35.27;;;21.67;;
7729;SDS011;3908;52.310;7.230;2023-05-07T02:14:42;33.33;;;20.57;;
7729;SDS011;3908;52.310;7.230;2023-05-07T02:17:29;38.00;;;23.37;;
7729;SDS011;3908;52.310;7.230;2023-05-07T02:20:18;34.80;;;21.70;;
7729;SDS011;3908;52.310;7.230;2023-05-07T02:23:05;34.93;;;21.47;;
7729;SDS011;3908;52.310;7.230;2023-05-07T02:25:51;34.77;;;22.53;;
7729;SDS011;3908;52.310;7.230;2023-05-07T02:28:38;36.10;;;20.83;;
7729;SDS011;3908;52.310;7.230;2023-05-07T02:31:26;34.47;;;21.50;;
7729;SDS011;3908;52.310;7.230;2023-05-07T02:34:13;36.80;;;21.53;;
7729;SDS011;3908;52.310;7.230;2023-05-07T02:37:00;37.30;;;23.07;;
7729;SDS011;3908;52.310;7.230;2023-05-07T02:39:46;38.27;;;22.53;;
7729;SDS011;3908;52.310;7.230;2023-05-07T02:42:33;35.77;;;21.73;;
7729;SDS011;3908;52.310;7.230;2023-05-07T02:45:20;38.50;;;23.10;;
7729;SDS011;3908;52.310;7.230;2023-05-07T02:48:08;34.37;;;21.67;;
7729;SDS011;3908;52.310;7.230;2023-05-07T02:50:55;37.60;;;22.03;;
7729;SDS011;3908;52.310;7.230;2023-05-07T02:53:41;34.13;;;21.77;;
7729;SDS011;3908;52.310;7.230;2023-05-07T02:56:28;38.07;;;22.17;;
7729;SDS011;3908;52.310;7.230;2023-05-07T02:59:15;39.23;;;23.80;;
7729;SDS011;3908;52.310;7.230;2023-05-07T03:02:02;37.17;;;22.83;;
7729;SDS011;3908;52.310;7.230;2023-05-07T03:04:50;38.03;;;23.90;;
7729;SDS011;3908;52.310;7.230;2023-05-07T03:07:37;35.43;;;22.60;;
7729;SDS011;3908;52.310;7.230;2023-05-07T03:10:24;38.00;;;22.93;;
7729;SDS011;3908;52.310;7.230;2023-05-07T03:13:10;39.90;;;24.10;;
7729;SDS011;3908;52.310;7.230;2023-05-07T03:15:57;40.27;;;23.30;;
7729;SDS011;3908;52.310;7.230;2023-05-07T03:18:44;41.77;;;24.90;;
7729;SDS011;3908;52.310;7.230;2023-05-07T03:21:32;49.70;;;26.20;;
7729;SDS011;3908;52.310;7.230;2023-05-07T03:24:19;44.30;;;23.23;;
7729;SDS011;3908;52.310;7.230;2023-05-07T03:27:06;42.20;;;24.90;;
7729;SDS011;3908;52.310;7.230;2023-05-07T03:29:53;43.17;;;24.47;;
7729;SDS011;3908;52.310;7.230;2023-05-07T03:32:40;41.73;;;25.70;;
7729;SDS011;3908;52.310;7.230;2023-05-07T03:35:27;46.00;;;26.00;;
7729;SDS011;3908;52.310;7.230;2023-05-07T03:38:15;40.47;;;24.80;;
7729;SDS011;3908;52.310;7.230;2023-05-07T03:41:01;43.17;;;26.20;;
7729;SDS011;3908;52.310;7.230;2023-05-07T03:43:48;46.07;;;26.13;;
7729;SDS011;3908;52.310;7.230;2023-05-07T03:46:35;49.13;;;25.93;;
7729;SDS011;3908;52.310;7.230;2023-05-07T03:49:22;47.50;;;26.70;;
7729;SDS011;3908;52.310;7.230;2023-05-07T03:52:08;44.30;;;25.83;;
7729;SDS011;3908;52.310;7.230;2023-05-07T03:54:57;46.63;;;27.47;;
7729;SDS011;3908;52.310;7.230;2023-05-07T03:57:43;42.40;;;26.27;;
7729;SDS011;3908;52.310;7.230;2023-05-07T04:00:30;42.37;;;25.80;;
7729;SDS011;3908;52.310;7.230;2023-05-07T04:03:18;43.93;;;26.23;;
7729;SDS011;3908;52.310;7.230;2023-05-07T04:06:05;45.07;;;27.23;;
7729;SDS011;3908;52.310;7.230;2023-05-07T04:08:52;47.90;;;26.23;;
7729;SDS011;3908;52.310;7.230;2023-05-07T04:11:40;50.97;;;28.03;;
7729;SDS011;3908;52.310;7.230;2023-05-07T04:14:27;47.87;;;28.17;;
7729;SDS011;3908;52.310;7.230;2023-05-07T04:17:14;47.60;;;27.60;;
7729;SDS011;3908;52.310;7.230;2023-05-07T04:20:00;55.43;;;28.27;;
7729;SDS011;3908;52.310;7.230;2023-05-07T04:22:47;46.67;;;27.13;;
7729;SDS011;3908;52.310;7.230;2023-05-07T04:25:34;46.53;;;27.53;;
7729;SDS011;3908;52.310;7.230;2023-05-07T04:28:22;54.47;;;28.10;;
7729;SDS011;3908;52.310;7.230;2023-05-07T04:31:09;47.20;;;26.83;;
7729;SDS011;3908;52.310;7.230;2023-05-07T04:33:56;50.97;;;27.80;;
7729;SDS011;3908;52.310;7.230;2023-05-07T04:36:43;48.13;;;28.50;;
7729;SDS011;3908;52.310;7.230;2023-05-07T04:39:29;53.10;;;29.43;;
7729;SDS011;3908;52.310;7.230;2023-05-07T04:42:16;52.80;;;28.63;;
7729;SDS011;3908;52.310;7.230;2023-05-07T04:45:05;54.47;;;28.73;;
7729;SDS011;3908;52.310;7.230;2023-05-07T04:47:52;51.07;;;29.43;;
7729;SDS011;3908;52.310;7.230;2023-05-07T04:50:39;51.37;;;28.17;;
7729;SDS011;3908;52.310;7.230;2023-05-07T04:53:26;53.67;;;30.43;;
7729;SDS011;3908;52.310;7.230;2023-05-07T04:56:12;53.00;;;29.93;;
7729;SDS011;3908;52.310;7.230;2023-05-07T04:58:59;48.70;;;28.37;;
7729;SDS011;3908;52.310;7.230;2023-05-07T05:01:47;54.30;;;29.77;;
7729;SDS011;3908;52.310;7.230;2023-05-07T05:04:34;49.03;;;28.30;;
7729;SDS011;3908;52.310;7.230;2023-05-07T05:07:21;47.77;;;29.53;;
7729;SDS011;3908;52.310;7.230;2023-05-07T05:10:07;49.70;;;28.80;;
7729;SDS011;3908;52.310;7.230;2023-05-07T05:12:54;54.27;;;30.00;;
7729;SDS011;3908;52.310;7.230;2023-05-07T05:15:41;51.70;;;29.83;;
7729;SDS011;3908;52.310;7.230;2023-05-07T05:18:29;52.57;;;29.60;;
7729;SDS011;3908;52.310;7.230;2023-05-07T05:21:16;52.30;;;29.83;;
7729;SDS011;3908;52.310;7.230;2023-05-07T05:24:03;48.53;;;28.00;;
7729;SDS011;3908;52.310;7.230;2023-05-07T05:26:51;50.97;;;29.93;;
7729;SDS011;3908;52.310;7.230;2023-05-07T05:29:39;53.80;;;29.40;;
7729;SDS011;3908;52.310;7.230;2023-05-07T05:32:26;51.67;;;29.03;;
7729;SDS011;3908;52.310;7.230;2023-05-07T05:35:14;54.13;;;29.73;;
7729;SDS011;3908;52.310;7.230;2023-05-07T05:38:02;48.20;;;29.10;;
7729;SDS011;3908;52.310;7.230;2023-05-07T05:40:49;49.93;;;29.27;;
7729;SDS011;3908;52.310;7.230;2023-05-07T05:43:35;55.40;;;29.80;;
7729;SDS011;3908;52.310;7.230;2023-05-07T05:46:22;52.10;;;29.57;;
7729;SDS011;3908;52.310;7.230;2023-05-07T05:49:09;48.57;;;29.63;;
7729;SDS011;3908;52.310;7.230;2023-05-07T05:51:57;53.30;;;30.60;;
7729;SDS011;3908;52.310;7.230;2023-05-07T05:54:44;48.07;;;29.07;;
7729;SDS011;3908;52.310;7.230;2023-05-07T05:57:31;50.67;;;28.70;;
7729;SDS011;3908;52.310;7.230;2023-05-07T06:00:17;53.30;;;28.27;;
7729;SDS011;3908;52.310;7.230;2023-05-07T06:03:07;49.33;;;28.57;;
7729;SDS011;3908;52.310;7.230;2023-05-07T06:05:54;54.80;;;29.10;;
7729;SDS011;3908;52.310;7.230;2023-05-07T06:08:42;57.90;;;31.97;;
7729;SDS011;3908;52.310;7.230;2023-05-07T06:11:29;51.93;;;29.67;;
7729;SDS011;3908;52.310;7.230;2023-05-07T06:14:16;55.17;;;30.60;;
7729;SDS011;3908;52.310;7.230;2023-05-07T06:17:03;50.37;;;28.20;;
7729;SDS011;3908;52.310;7.230;2023-05-07T06:19:50;46.93;;;28.73;;
7729;SDS011;3908;52.310;7.230;2023-05-07T06:22:37;55.90;;;31.43;;
7729;SDS011;3908;52.310;7.230;2023-05-07T06:25:25;47.17;;;28.10;;
7729;SDS011;3908;52.310;7.230;2023-05-07T06:28:12;49.17;;;30.50;;
7729;SDS011;3908;52.310;7.230;2023-05-07T06:31:10;48.57;;;28.13;;
7729;SDS011;3908;52.310;7.230;2023-05-07T06:33:57;51.60;;;29.40;;
7729;SDS011;3908;52.310;7.230;2023-05-07T06:36:44;48.47;;;28.37;;
7729;SDS011;3908;52.310;7.230;2023-05-07T06:39:31;52.23;;;29.40;;
7729;SDS011;3908;52.310;7.230;2023-05-07T06:42:19;48.43;;;28.17;;
7729;SDS011;3908;52.310;7.230;2023-05-07T06:45:06;51.00;;;29.00;;
7729;SDS011;3908;52.310;7.230;2023-05-07T06:47:53;46.27;;;27.30;;
7729;SDS011;3908;52.310;7.230;2023-05-07T06:50:41;43.73;;;27.27;;
7729;SDS011;3908;52.310;7.230;2023-05-07T06:53:28;46.50;;;26.53;;
7729;SDS011;3908;52.310;7.230;2023-05-07T06:56:16;45.80;;;25.53;;
7729;SDS011;3908;52.310;7.230;2023-05-07T06:59:04;45.43;;;27.30;;
7729;SDS011;3908;52.310;7.230;2023-05-07T07:01:50;41.20;;;26.57;;
7729;SDS011;3908;52.310;7.230;2023-05-07T07:04:37;38.07;;;24.20;;
7729;SDS011;3908;52.310;7.230;2023-05-07T07:07:24;42.43;;;25.67;;
7729;SDS011;3908;52.310;7.230;2023-05-07T07:10:11;42.93;;;25.17;;
7729;SDS011;3908;52.310;7.230;2023-05-07T07:12:58;43.67;;;24.60;;
7729;SDS011;3908;52.310;7.230;2023-05-07T07:15:46;38.80;;;23.90;;
7729;SDS011;3908;52.310;7.230;2023-05-07T07:18:33;38.03;;;23.70;;
7729;SDS011;3908;52.310;7.230;2023-05-07T07:21:19;39.30;;;24.37;;
7729;SDS011;3908;52.310;7.230;2023-05-07T07:24:06;40.43;;;24.33;;
7729;SDS011;3908;52.310;7.230;2023-05-07T07:26:53;34.33;;;22.37;;
7729;SDS011;3908;52.310;7.230;2023-05-07T07:29:40;36.97;;;22.60;;
7729;SDS011;3908;52.310;7.230;2023-05-07T07:32:28;32.80;;;21.40;;
7729;SDS011;3908;52.310;7.230;2023-05-07T07:35:15;35.27;;;22.13;;
7729;SDS011;3908;52.310;7.230;2023-05-07T07:38:02;31.33;;;20.93;;
7729;SDS011;3908;52.310;7.230;2023-05-07T07:40:49;32.73;;;20.87;;
7729;SDS011;3908;52.310;7.230;2023-05-07T07:43:35;29.70;;;19.03;;
7729;SDS011;3908;52.310;7.230;2023-05-07T07:46:22;28.67;;;19.77;;
7729;SDS011;3908;52.310;7.230;2023-05-07T07:49:10;33.57;;;19.93;;
7729;SDS011;3908;52.310;7.230;2023-05-07T07:51:57;28.03;;;19.33;;
7729;SDS011;3908;52.310;7.230;2023-05-07T07:54:44;31.90;;;19.40;;
7729;SDS011;3908;52.310;7.230;2023-05-07T07:57:31;35.50;;;21.77;;
7729;SDS011;3908;52.310;7.230;2023-05-07T08:00:18;26.67;;;18.80;;
7729;SDS011;3908;52.310;7.230;2023-05-07T08:03:05;27.30;;;18.03;;
7729;SDS011;3908;52.310;7.230;2023-05-07T08:05:54;30.37;;;19.53;;
7729;SDS011;3908;52.310;7.230;2023-05-07T08:08:40;27.47;;;18.93;;
7729;SDS011;3908;52.310;7.230;2023-05-07T08:11:27;26.63;;;18.83;;
7729;SDS011;3908;52.310;7.230;2023-05-07T08:14:14;26.47;;;18.73;;
7729;SDS011;3908;52.310;7.230;2023-05-07T08:17:01;24.70;;;18.00;;
7729;SDS011;3908;52.310;7.230;2023-05-07T08:19:48;25.63;;;17.17;;
7729;SDS011;3908;52.310;7.230;2023-05-07T08:22:36;27.40;;;18.40;;
7729;SDS011;3908;52.310;7.230;2023-05-07T08:25:23;29.30;;;18.10;;
7729;SDS011;3908;52.310;7.230;2023-05-07T08:28:10;30.30;;;18.27;;
7729;SDS011;3908;52.310;7.230;2023-05-07T08:30:57;27.20;;;18.60;;
7729;SDS011;3908;52.310;7.230;2023-05-07T08:33:45;26.10;;;17.53;;
7729;SDS011;3908;52.310;7.230;2023-05-07T08:36:32;25.50;;;17.43;;
7729;SDS011;3908;52.310;7.230;2023-05-07T08:39:20;30.73;;;18.27;;
7729;SDS011;3908;52.310;7.230;2023-05-07T08:42:07;24.57;;;16.80;;
7729;SDS011;3908;52.310;7.230;2023-05-07T08:44:56;26.83;;;17.00;;
7729;SDS011;3908;52.310;7.230;2023-05-07T08:47:46;24.40;;;16.60;;
7729;SDS011;3908;52.310;7.230;2023-05-07T08:50:34;23.40;;;16.33;;
7729;SDS011;3908;52.310;7.230;2023-05-07T08:53:21;25.30;;;16.80;;
7729;SDS011;3908;52.310;7.230;2023-05-07T08:56:09;28.10;;;16.93;;
7729;SDS011;3908;52.310;7.230;2023-05-07T08:58:56;24.97;;;17.00;;
7729;SDS011;3908;52.310;7.230;2023-05-07T09:01:44;23.17;;;16.47;;
7729;SDS011;3908;52.310;7.230;2023-05-07T09:04:31;27.70;;;18.07;;
7729;SDS011;3908;52.310;7.230;2023-05-07T09:07:18;24.43;;;17.10;;
7729;SDS011;3908;52.310;7.230;2023-05-07T09:10:05;23.23;;;16.30;;
7729;SDS011;3908;52.310;7.230;2023-05-07T09:12:54;23.70;;;15.97;;
7729;SDS011;3908;52.310;7.230;2023-05-07T09:15:40;25.13;;;16.30;;
7729;SDS011;3908;52.310;7.230;2023-05-07T09:18:27;22.40;;;16.10;;
7729;SDS011;3908;52.310;7.230;2023-05-07T09:21:14;22.53;;;16.07;;
7729;SDS011;3908;52.310;7.230;2023-05-07T09:24:01;23.07;;;15.63;;
7729;SDS011;3908;52.310;7.230;2023-05-07T09:26:48;22.83;;;17.07;;
7729;SDS011;3908;52.310;7.230;2023-05-07T09:29:36;28.27;;;18.47;;
7729;SDS011;3908;52.310;7.230;2023-05-07T09:32:24;22.43;;;15.97;;
7729;SDS011;3908;52.310;7.230;2023-05-07T09:35:14;24.67;;;16.57;;
7729;SDS011;3908;52.310;7.230;2023-05-07T09:38:01;25.63;;;18.03;;
7729;SDS011;3908;52.310;7.230;2023-05-07T09:40:48;24.37;;;16.77;;
7729;SDS011;3908;52.310;7.230;2023-05-07T09:43:47;25.37;;;17.30;;
7729;SDS011;3908;52.310;7.230;2023-05-07T09:46:41;24.73;;;16.10;;
7729;SDS011;3908;52.310;7.230;2023-05-07T09:49:29;22.73;;;16.90;;
7729;SDS011;3908;52.310;7.230;2023-05-07T09:52:16;25.10;;;16.67;;
7729;SDS011;3908;52.310;7.230;2023-05-07T09:55:03;25.37;;;17.90;;
7729;SDS011;3908;52.310;7.230;2023-05-07T09:57:51;23.23;;;16.50;;
7729;SDS011;3908;52.310;7.230;2023-05-07T10:00:39;23.37;;;16.47;;
7729;SDS011;3908;52.310;7.230;2023-05-07T10:03:27;23.37;;;17.33;;
7729;SDS011;3908;52.310;7.230;2023-05-07T10:06:16;23.13;;;16.13;;
7729;SDS011;3908;52.310;7.230;2023-05-07T10:09:03;25.53;;;15.77;;
7729;SDS011;3908;52.310;7.230;2023-05-07T10:11:52;22.83;;;15.83;;
7729;SDS011;3908;52.310;7.230;2023-05-07T10:14:39;23.97;;;14.73;;
7729;SDS011;3908;52.310;7.230;2023-05-07T10:17:25;23.90;;;16.20;;
7729;SDS011;3908;52.310;7.230;2023-05-07T10:20:14;23.70;;;15.77;;
7729;SDS011;3908;52.310;7.230;2023-05-07T10:23:01;20.43;;;14.57;;
7729;SDS011;3908;52.310;7.230;2023-05-07T10:25:49;20.70;;;15.05;;
7729;SDS011;3908;52.310;7.230;2023-05-07T10:28:37;21.48;;;15.48;;
7729;SDS011;3908;52.310;7.230;2023-05-07T10:34:34;20.50;;;15.13;;
7729;SDS011;3908;52.310;7.230;2023-05-07T10:37:23;19.20;;;15.20;;
7729;SDS011;3908;52.310;7.230;2023-05-07T10:40:11;18.90;;;14.13;;
7729;SDS011;3908;52.310;7.230;2023-05-07T10:42:58;21.53;;;15.90;;
7729;SDS011;3908;52.310;7.230;2023-05-07T10:49:06;19.33;;;14.45;;
7729;SDS011;3908;52.310;7.230;2023-05-07T10:57:57;21.30;;;15.40;;
7729;SDS011;3908;52.310;7.230;2023-05-07T11:01:04;21.13;;;14.33;;
7729;SDS011;3908;52.310;7.230;2023-05-07T11:10:15;21.25;;;14.05;;
7729;SDS011;3908;52.310;7.230;2023-05-07T11:13:03;19.85;;;13.85;;
7729;SDS011;3908;52.310;7.230;2023-05-07T11:15:50;18.33;;;14.35;;
7729;SDS011;3908;52.310;7.230;2023-05-07T11:18:46;20.75;;;13.57;;
7729;SDS011;3908;52.310;7.230;2023-05-07T11:21:34;22.77;;;15.45;;
7729;SDS011;3908;52.310;7.230;2023-05-07T11:24:21;25.37;;;15.30;;
7729;SDS011;3908;52.310;7.230;2023-05-07T11:27:08;19.45;;;13.90;;
7729;SDS011;3908;52.310;7.230;2023-05-07T11:29:56;18.83;;;14.10;;
7729;SDS011;3908;52.310;7.230;2023-05-07T11:32:43;18.85;;;14.45;;
7729;SDS011;3908;52.310;7.230;2023-05-07T11:35:33;18.25;;;13.48;;
7729;SDS011;3908;52.310;7.230;2023-05-07T11:38:20;20.98;;;14.32;;
7729;SDS011;3908;52.310;7.230;2023-05-07T11:41:07;18.48;;;13.63;;
7729;SDS011;3908;52.310;7.230;2023-05-07T11:43:54;18.00;;;12.63;;
7729;SDS011;3908;52.310;7.230;2023-05-07T11:46:43;20.50;;;13.05;;
7729;SDS011;3908;52.310;7.230;2023-05-07T11:49:30;20.98;;;13.65;;
7729;SDS011;3908;52.310;7.230;2023-05-07T11:52:17;18.52;;;13.10;;
7729;SDS011;3908;52.310;7.230;2023-05-07T11:55:06;16.52;;;12.77;;
7729;SDS011;3908;52.310;7.230;2023-05-07T11:57:53;16.77;;;12.07;;
7729;SDS011;3908;52.310;7.230;2023-05-07T12:00:47;16.20;;;12.05;;
7729;SDS011;3908;52.310;7.230;2023-05-07T12:03:35;18.30;;;11.80;;
7729;SDS011;3908;52.310;7.230;2023-05-07T12:06:22;13.77;;;10.00;;
7729;SDS011;3908;52.310;7.230;2023-05-07T12:09:09;14.65;;;11.60;;
7729;SDS011;3908;52.310;7.230;2023-05-07T12:11:57;18.10;;;10.77;;
7729;SDS011;3908;52.310;7.230;2023-05-07T12:14:44;18.25;;;11.40;;
7729;SDS011;3908;52.310;7.230;2023-05-07T12:17:30;16.30;;;11.55;;
7729;SDS011;3908;52.310;7.230;2023-05-07T12:20:19;17.17;;;12.05;;
7729;SDS011;3908;52.310;7.230;2023-05-07T12:23:06;15.68;;;11.27;;
7729;SDS011;3908;52.310;7.230;2023-05-07T12:25:52;15.20;;;12.15;;
7729;SDS011;3908;52.310;7.230;2023-05-07T12:28:39;15.85;;;10.82;;
7729;SDS011;3908;52.310;7.230;2023-05-07T12:31:26;16.30;;;11.13;;
7729;SDS011;3908;52.310;7.230;2023-05-07T12:34:13;16.52;;;11.07;;
7729;SDS011;3908;52.310;7.230;2023-05-07T12:37:02;15.65;;;11.50;;
7729;SDS011;3908;52.310;7.230;2023-05-07T12:39:49;15.10;;;10.25;;
7729;SDS011;3908;52.310;7.230;2023-05-07T12:42:37;15.55;;;10.52;;
7729;SDS011;3908;52.310;7.230;2023-05-07T12:45:23;12.63;;;10.02;;
7729;SDS011;3908;52.310;7.230;2023-05-07T12:48:12;14.45;;;10.52;;
7729;SDS011;3908;52.310;7.230;2023-05-07T12:50:59;16.33;;;10.82;;
7729;SDS011;3908;52.310;7.230;2023-05-07T12:53:47;14.90;;;9.95;;
7729;SDS011;3908;52.310;7.230;2023-05-07T12:56:35;16.38;;;10.18;;
7729;SDS011;3908;52.310;7.230;2023-05-07T12:59:30;16.30;;;11.55;;
7729;SDS011;3908;52.310;7.230;2023-05-07T13:02:16;14.32;;;10.52;;
7729;SDS011;3908;52.310;7.230;2023-05-07T13:05:03;15.57;;;11.25;;
7729;SDS011;3908;52.310;7.230;2023-05-07T13:08:10;13.15;;;10.60;;
7729;SDS011;3908;52.310;7.230;2023-05-07T13:10:58;13.73;;;10.75;;
7729;SDS011;3908;52.310;7.230;2023-05-07T13:13:45;13.90;;;10.48;;
7729;SDS011;3908;52.310;7.230;2023-05-07T13:16:32;14.73;;;10.80;;
7729;SDS011;3908;52.310;7.230;2023-05-07T13:19:18;14.40;;;9.48;;
7729;SDS011;3908;52.310;7.230;2023-05-07T13:22:06;12.45;;;9.48;;
7729;SDS011;3908;52.310;7.230;2023-05-07T13:24:54;14.88;;;9.38;;
7729;SDS011;3908;52.310;7.230;2023-05-07T13:27:41;13.13;;;9.20;;
7729;SDS011;3908;52.310;7.230;2023-05-07T13:30:28;16.00;;;10.15;;
7729;SDS011;3908;52.310;7.230;2023-05-07T13:33:15;12.73;;;9.50;;
7729;SDS011;3908;52.310;7.230;2023-05-07T13:36:02;12.13;;;9.10;;
7729;SDS011;3908;52.310;7.230;2023-05-07T13:38:50;10.52;;;8.35;;
7729;SDS011;3908;52.310;7.230;2023-05-07T13:41:38;13.32;;;8.95;;
7729;SDS011;3908;52.310;7.230;2023-05-07T13:44:26;11.30;;;8.88;;
7729;SDS011;3908;52.310;7.230;2023-05-07T13:47:13;12.95;;;8.27;;
7729;SDS011;3908;52.310;7.230;2023-05-07T13:49:59;9.82;;;7.43;;
7729;SDS011;3908;52.310;7.230;2023-05-07T13:52:46;11.60;;;8.60;;
7729;SDS011;3908;52.310;7.230;2023-05-07T13:55:36;10.35;;;7.95;;
7729;SDS011;3908;52.310;7.230;2023-05-07T13:58:24;10.90;;;7.85;;
7729;SDS011;3908;52.310;7.230;2023-05-07T14:01:10;11.43;;;8.50;;
7729;SDS011;3908;52.310;7.230;2023-05-07T14:03:57;10.13;;;7.65;;
7729;SDS011;3908;52.310;7.230;2023-05-07T14:06:45;9.05;;;7.47;;
7729;SDS011;3908;52.310;7.230;2023-05-07T14:09:32;9.38;;;6.97;;
7729;SDS011;3908;52.310;7.230;2023-05-07T14:12:18;13.10;;;7.93;;
7729;SDS011;3908;52.310;7.230;2023-05-07T14:15:07;8.40;;;6.43;;
7729;SDS011;3908;52.310;7.230;2023-05-07T14:17:54;12.38;;;7.38;;
7729;SDS011;3908;52.310;7.230;2023-05-07T14:20:42;11.10;;;7.18;;
7729;SDS011;3908;52.310;7.230;2023-05-07T14:23:31;12.32;;;7.32;;
7729;SDS011;3908;52.310;7.230;2023-05-07T14:26:18;8.95;;;6.82;;
7729;SDS011;3908;52.310;7.230;2023-05-07T14:29:06;9.35;;;6.93;;
7729;SDS011;3908;52.310;7.230;2023-05-07T14:31:54;10.60;;;7.53;;
7729;SDS011;3908;52.310;7.230;2023-05-07T14:34:40;9.48;;;7.90;;
7729;SDS011;3908;52.310;7.230;2023-05-07T14:37:27;11.90;;;8.90;;
7729;SDS011;3908;52.310;7.230;2023-05-07T14:40:14;10.35;;;7.47;;
7729;SDS011;3908;52.310;7.230;2023-05-07T14:43:01;13.10;;;8.82;;
7729;SDS011;3908;52.310;7.230;2023-05-07T14:45:47;11.65;;;7.63;;
7729;SDS011;3908;52.310;7.230;2023-05-07T14:48:36;11.30;;;7.75;;
7729;SDS011;3908;52.310;7.230;2023-05-07T14:51:23;11.68;;;8.77;;
7729;SDS011;3908;52.310;7.230;2023-05-07T14:54:11;9.10;;;7.32;;
7729;SDS011;3908;52.310;7.230;2023-05-07T14:56:58;9.75;;;7.90;;
7729;SDS011;3908;52.310;7.230;2023-05-07T14:59:44;12.25;;;8.15;;
7729;SDS011;3908;52.310;7.230;2023-05-07T15:02:32;9.55;;;7.30;;
7729;SDS011;3908;52.310;7.230;2023-05-07T15:05:20;11.77;;;7.72;;
7729;SDS011;3908;52.310;7.230;2023-05-07T15:08:07;12.45;;;7.97;;
7729;SDS011;3908;52.310;7.230;2023-05-07T15:10:53;11.57;;;7.88;;
7729;SDS011;3908;52.310;7.230;2023-05-07T15:13:41;11.95;;;8.20;;
7729;SDS011;3908;52.310;7.230;2023-05-07T15:16:28;10.05;;;7.95;;
7729;SDS011;3908;52.310;7.230;2023-05-07T15:19:15;10.70;;;7.78;;
7729;SDS011;3908;52.310;7.230;2023-05-07T15:22:03;9.52;;;7.13;;
7729;SDS011;3908;52.310;7.230;2023-05-07T15:24:51;9.93;;;6.95;;
7729;SDS011;3908;52.310;7.230;2023-05-07T15:27:37;13.30;;;7.82;;
7729;SDS011;3908;52.310;7.230;2023-05-07T15:30:24;9.43;;;6.93;;
7729;SDS011;3908;52.310;7.230;2023-05-07T15:33:11;8.85;;;7.03;;
7729;SDS011;3908;52.310;7.230;2023-05-07T15:35:58;8.32;;;6.10;;
7729;SDS011;3908;52.310;7.230;2023-05-07T15:38:46;8.48;;;6.88;;
7729;SDS011;3908;52.310;7.230;2023-05-07T15:41:33;7.95;;;6.05;;
7729;SDS011;3908;52.310;7.230;2023-05-07T15:44:20;10.60;;;6.70;;
7729;SDS011;3908;52.310;7.230;2023-05-07T15:47:06;11.70;;;6.57;;
7729;SDS011;3908;52.310;7.230;2023-05-07T15:49:53;7.97;;;5.88;;
7729;SDS011;3908;52.310;7.230;2023-05-07T15:52:40;22.90;;;7.30;;
7729;SDS011;3908;52.310;7.230;2023-05-07T15:55:29;8.43;;;5.60;;
7729;SDS011;3908;52.310;7.230;2023-05-07T15:58:15;6.20;;;5.57;;
7729;SDS011;3908;52.310;7.230;2023-05-07T16:01:04;7.00;;;5.63;;
7729;SDS011;3908;52.310;7.230;2023-05-07T16:03:51;6.97;;;5.38;;
7729;SDS011;3908;52.310;7.230;2023-05-07T16:06:38;9.90;;;5.80;;
7729;SDS011;3908;52.310;7.230;2023-05-07T16:09:25;5.70;;;4.93;;
7729;SDS011;3908;52.310;7.230;2023-05-07T16:12:15;5.75;;;5.18;;
7729;SDS011;3908;52.310;7.230;2023-05-07T16:15:02;9.77;;;6.00;;
7729;SDS011;3908;52.310;7.230;2023-05-07T16:17:50;9.25;;;5.57;;
7729;SDS011;3908;52.310;7.230;2023-05-07T16:20:42;8.15;;;5.70;;
7729;SDS011;3908;52.310;7.230;2023-05-07T16:23:29;6.28;;;5.15;;
7729;SDS011;3908;52.310;7.230;2023-05-07T16:26:15;8.63;;;5.18;;
7729;SDS011;3908;52.310;7.230;2023-05-07T16:29:04;11.38;;;5.70;;
7729;SDS011;3908;52.310;7.230;2023-05-07T16:31:51;10.75;;;5.80;;
7729;SDS011;3908;52.310;7.230;2023-05-07T16:34:38;8.80;;;5.47;;
7729;SDS011;3908;52.310;7.230;2023-05-07T16:37:25;6.75;;;5.53;;
7729;SDS011;3908;52.310;7.230;2023-05-07T16:40:12;6.45;;;4.88;;
7729;SDS011;3908;52.310;7.230;2023-05-07T16:42:58;6.97;;;5.10;;
7729;SDS011;3908;52.310;7.230;2023-05-07T16:45:47;9.30;;;5.55;;
7729;SDS011;3908;52.310;7.230;2023-05-07T16:48:33;24.77;;;6.45;;
7729;SDS011;3908;52.310;7.230;2023-05-07T16:51:20;8.18;;;5.30;;
7729;SDS011;3908;52.310;7.230;2023-05-07T16:54:08;10.60;;;5.30;;
7729;SDS011;3908;52.310;7.230;2023-05-07T16:56:55;8.60;;;5.97;;
7729;SDS011;3908;52.310;7.230;2023-05-07T16:59:44;7.43;;;5.47;;
7729;SDS011;3908;52.310;7.230;2023-05-07T17:02:32;6.72;;;5.53;;
7729;SDS011;3908;52.310;7.230;2023-05-07T17:05:19;7.60;;;6.05;;
7729;SDS011;3908;52.310;7.230;2023-05-07T17:08:06;7.68;;;5.18;;
7729;SDS011;3908;52.310;7.230;2023-05-07T17:10:53;6.90;;;5.23;;
7729;SDS011;3908;52.310;7.230;2023-05-07T17:13:39;6.90;;;5.53;;